PST,Max TemperatureF,Mean TemperatureF,Min TemperatureF,Max Dew PointF,MeanDew PointF,Min DewpointF,Max Humidity, Mean Humidity, Min Humidity, Max Sea Level PressureIn, Mean Sea Level PressureIn, Min Sea Level PressureIn, Max VisibilityMiles, Mean VisibilityMiles, Min VisibilityMiles, Max Wind SpeedMPH, Mean Wind SpeedMPH, Max Gust SpeedMPH,PrecipitationIn, CloudCover, Events, WindDirDegrees
2013-2-1,50,44,37,48,44,37,100,99,87,30.44,30.40,30.35,10,9,2,9,3,,0.00,4,,346
2013-2-2,46,40,35,45,41,36,100,98,93,30.42,30.33,30.26,10,6,0,12,5,,0.00,5,,316
2013-2-3,46,42,37,46,42,37,100,100,100,30.31,30.27,30.21,10,5,1,8,4,,0.14,8,,153
2013-2-4,50,47,44,46,45,45,100,96,82,30.20,30.08,29.86,10,9,2,12,6,17,0.01,6,,131
2013-2-5,50,47,44,45,44,43,100,90,76,29.91,29.84,29.79,10,10,10,17,11,26,0.00,7,,158
2013-2-6,48,46,44,45,43,39,100,90,71,30.02,29.94,29.79,10,10,10,17,9,29,0.00,7,,135
2013-2-7,48,42,35,45,39,36,100,88,71,30.21,30.01,29.79,10,10,6,20,9,30,0.05,5,,142
2013-2-8,44,38,32,41,37,32,100,96,81,30.32,30.28,30.21,10,10,9,7,2,,0.00,7,,12
2013-2-9,42,38,33,43,40,34,100,100,100,30.36,30.30,30.27,10,7,0,5,2,,0.00,8,,52
2013-2-10,46,38,30,43,37,30,100,94,71,30.40,30.37,30.34,10,9,0,8,2,,0.00,4,,30
2013-2-11,44,42,39,45,42,39,100,100,93,30.36,30.35,30.34,10,7,2,9,3,,0.01,8,,123
2013-2-12,50,44,39,48,45,39,100,100,93,30.41,30.35,30.28,10,9,4,12,2,20,0.00,8,,140
2013-2-13,48,45,42,46,44,41,100,95,82,30.51,30.42,30.31,10,10,3,14,5,20,0.01,7,,198
2013-2-14,48,45,42,46,44,43,100,99,93,30.58,30.55,30.50,10,8,3,10,3,,0.12,8,,123
2013-2-15,51,45,37,48,44,37,100,98,82,30.58,30.40,30.18,10,9,4,12,6,,0.00,2,,340
2013-2-16,50,44,37,46,42,37,100,95,76,30.18,30.15,30.12,10,8,2,14,4,24,0.00,6,,232
2013-2-17,44,40,37,45,41,37,100,97,81,30.25,30.21,30.14,10,9,2,9,4,,0.15,7,,145
2013-2-18,46,40,35,39,38,36,100,92,76,30.12,29.94,29.77,10,10,10,12,5,18,0.00,5,,95
2013-2-19,48,42,35,43,38,36,100,92,66,30.01,29.85,29.76,10,10,10,21,9,22,0.28,4,,12
2013-2-20,46,40,35,43,39,36,100,96,76,30.05,30.03,30.00,10,10,7,13,4,16,0.00,8,,95
2013-2-21,42,40,39,43,41,39,100,100,93,30.06,30.03,30.01,10,9,4,13,5,23,0.09,8,,154
2013-2-22,44,42,39,45,42,37,100,96,81,30.03,29.81,29.68,10,8,1,20,9,29,0.29,7,,178
2013-2-23,48,42,37,43,39,36,100,86,66,30.36,30.15,29.88,10,9,5,12,7,20,0.05,5,,224
2013-2-24,46,42,39,41,39,37,100,84,71,30.39,30.21,29.91,10,10,3,22,10,32,0.00,8,,141
2013-2-25,48,44,41,43,39,36,100,85,62,30.29,30.03,29.87,10,9,5,28,12,43,1.47,6,,216
2013-2-26,46,42,39,39,37,34,100,80,62,30.35,30.27,30.18,10,10,9,16,7,25,0.00,7,,148
2013-2-27,48,44,39,45,41,37,100,93,71,30.31,30.28,30.20,10,9,3,17,6,23,1.01,7,,98
2013-2-28,53,46,39,54,45,39,100,100,100,30.29,30.24,30.19,10,9,3,15,9,25,0.24,6,,90